sensor_id;sensor_type;location;lat;lon;timestamp;P1;durP1;ratioP1;P2;durP2;ratioP2
52624;SDS011;38519;52.540;13.410;2022-12-07T00:01:38;15.98;;;6.75;;
52624;SDS011;38519;52.540;13.410;2022-12-07T00:04:06;13.40;;;6.47;;
52624;SDS011;38519;52.540;13.410;2022-12-07T00:06:37;16.00;;;6.72;;
52624;SDS011;38519;52.540;13.410;2022-12-07T00:09:05;16.13;;;6.70;;
52624;SDS011;38519;52.540;13.410;2022-12-07T00:11:32;14.05;;;6.22;;
52624;SDS011;38519;52.540;13.410;2022-12-07T00:13:59;15.05;;;6.43;;
52624;SDS011;38519;52.540;13.410;2022-12-07T00:16:26;17.13;;;6.82;;
52624;SDS011;38519;52.540;13.410;2022-12-07T00:18:54;17.13;;;6.85;;
52624;SDS011;38519;52.540;13.410;2022-12-07T00:21:22;15.93;;;6.88;;
52624;SDS011;38519;52.540;13.410;2022-12-07T00:23:50;14.43;;;6.60;;
52624;SDS011;38519;52.540;13.410;2022-12-07T00:26:23;14.10;;;6.72;;
52624;SDS011;38519;52.540;13.410;2022-12-07T00:28:53;15.32;;;6.50;;
52624;SDS011;38519;52.540;13.410;2022-12-07T00:31:21;14.20;;;6.53;;
52624;SDS011;38519;52.540;13.410;2022-12-07T00:33:48;17.60;;;6.93;;
52624;SDS011;38519;52.540;13.410;2022-12-07T00:41:11;13.38;;;6.20;;
52624;SDS011;38519;52.540;13.410;2022-12-07T00:43:45;13.60;;;6.78;;
52624;SDS011;38519;52.540;13.410;2022-12-07T00:46:12;13.80;;;5.57;;
52624;SDS011;38519;52.540;13.410;2022-12-07T00:48:40;15.93;;;7.35;;
52624;SDS011;38519;52.540;13.410;2022-12-07T00:51:07;15.38;;;7.15;;
52624;SDS011;38519;52.540;13.410;2022-12-07T00:53:34;15.10;;;6.63;;
52624;SDS011;38519;52.540;13.410;2022-12-07T00:58:38;12.52;;;5.85;;
52624;SDS011;38519;52.540;13.410;2022-12-07T01:01:04;15.25;;;6.85;;
52624;SDS011;38519;52.540;13.410;2022-12-07T01:03:31;12.13;;;5.93;;
52624;SDS011;38519;52.540;13.410;2022-12-07T01:05:56;12.55;;;5.97;;
52624;SDS011;38519;52.540;13.410;2022-12-07T01:08:22;13.57;;;5.97;;
52624;SDS011;38519;52.540;13.410;2022-12-07T01:10:49;15.23;;;6.95;;
52624;SDS011;38519;52.540;13.410;2022-12-07T01:13:22;13.52;;;6.47;;
52624;SDS011;38519;52.540;13.410;2022-12-07T01:18:13;15.00;;;6.40;;
52624;SDS011;38519;52.540;13.410;2022-12-07T01:20:38;13.13;;;5.72;;
52624;SDS011;38519;52.540;13.410;2022-12-07T01:25:30;11.05;;;6.07;;
52624;SDS011;38519;52.540;13.410;2022-12-07T01:30:21;16.33;;;6.50;;
52624;SDS011;38519;52.540;13.410;2022-12-07T01:32:47;13.98;;;6.22;;
52624;SDS011;38519;52.540;13.410;2022-12-07T01:37:38;14.18;;;5.75;;
52624;SDS011;38519;52.540;13.410;2022-12-07T01:42:31;12.48;;;5.32;;
52624;SDS011;38519;52.540;13.410;2022-12-07T01:47:51;13.45;;;6.03;;
52624;SDS011;38519;52.540;13.410;2022-12-07T01:50:20;15.88;;;5.70;;
52624;SDS011;38519;52.540;13.410;2022-12-07T01:52:48;13.23;;;6.15;;
52624;SDS011;38519;52.540;13.410;2022-12-07T01:55:18;12.82;;;5.95;;
52624;SDS011;38519;52.540;13.410;2022-12-07T02:00:13;12.93;;;5.15;;
52624;SDS011;38519;52.540;13.410;2022-12-07T02:05:21;11.07;;;5.15;;
52624;SDS011;38519;52.540;13.410;2022-12-07T02:07:49;10.32;;;5.10;;
52624;SDS011;38519;52.540;13.410;2022-12-07T02:10:20;10.70;;;4.95;;
52624;SDS011;38519;52.540;13.410;2022-12-07T02:12:49;9.13;;;4.35;;
52624;SDS011;38519;52.540;13.410;2022-12-07T02:15:20;13.43;;;4.15;;
52624;SDS011;38519;52.540;13.410;2022-12-07T02:18:07;9.18;;;4.68;;
52624;SDS011;38519;52.540;13.410;2022-12-07T02:31:33;8.45;;;4.00;;
52624;SDS011;38519;52.540;13.410;2022-12-07T02:34:03;9.52;;;4.47;;
52624;SDS011;38519;52.540;13.410;2022-12-07T02:36:37;8.63;;;4.40;;
52624;SDS011;38519;52.540;13.410;2022-12-07T02:39:11;10.15;;;4.05;;
52624;SDS011;38519;52.540;13.410;2022-12-07T02:44:14;9.77;;;4.10;;
52624;SDS011;38519;52.540;13.410;2022-12-07T02:46:48;11.95;;;4.70;;
52624;SDS011;38519;52.540;13.410;2022-12-07T02:49:20;12.02;;;4.95;;
52624;SDS011;38519;52.540;13.410;2022-12-07T02:51:48;11.43;;;5.53;;
52624;SDS011;38519;52.540;13.410;2022-12-07T03:07:30;11.00;;;4.88;;
52624;SDS011;38519;52.540;13.410;2022-12-07T03:10:07;11.90;;;5.22;;
52624;SDS011;38519;52.540;13.410;2022-12-07T03:15:14;12.05;;;5.13;;
52624;SDS011;38519;52.540;13.410;2022-12-07T03:17:45;12.75;;;5.93;;
52624;SDS011;38519;52.540;13.410;2022-12-07T03:20:13;11.05;;;5.60;;
52624;SDS011;38519;52.540;13.410;2022-12-07T03:22:44;13.68;;;6.18;;
52624;SDS011;38519;52.540;13.410;2022-12-07T03:25:13;14.13;;;6.80;;
52624;SDS011;38519;52.540;13.410;2022-12-07T03:30:29;15.55;;;6.88;;
52624;SDS011;38519;52.540;13.410;2022-12-07T03:33:11;13.80;;;6.50;;
52624;SDS011;38519;52.540;13.410;2022-12-07T03:35:44;14.95;;;6.88;;
52624;SDS011;38519;52.540;13.410;2022-12-07T03:38:23;16.02;;;6.85;;
52624;SDS011;38519;52.540;13.410;2022-12-07T03:43:25;15.98;;;7.53;;
52624;SDS011;38519;52.540;13.410;2022-12-07T03:46:02;15.20;;;6.88;;
52624;SDS011;38519;52.540;13.410;2022-12-07T03:48:41;19.33;;;7.50;;
52624;SDS011;38519;52.540;13.410;2022-12-07T03:52:02;14.40;;;6.88;;
52624;SDS011;38519;52.540;13.410;2022-12-07T03:54:20;15.90;;;7.55;;
52624;SDS011;38519;52.540;13.410;2022-12-07T03:56:51;14.43;;;7.40;;
52624;SDS011;38519;52.540;13.410;2022-12-07T03:59:19;22.27;;;8.23;;
52624;SDS011;38519;52.540;13.410;2022-12-07T04:01:51;19.88;;;8.30;;
52624;SDS011;38519;52.540;13.410;2022-12-07T04:04:19;20.77;;;7.38;;
52624;SDS011;38519;52.540;13.410;2022-12-07T04:06:46;20.88;;;8.15;;
52624;SDS011;38519;52.540;13.410;2022-12-07T04:11:39;16.83;;;6.72;;
52624;SDS011;38519;52.540;13.410;2022-12-07T04:16:44;16.20;;;7.00;;
52624;SDS011;38519;52.540;13.410;2022-12-07T04:19:14;18.73;;;7.88;;
52624;SDS011;38519;52.540;13.410;2022-12-07T04:21:41;17.05;;;8.05;;
52624;SDS011;38519;52.540;13.410;2022-12-07T04:24:07;15.93;;;7.57;;
52624;SDS011;38519;52.540;13.410;2022-12-07T04:28:58;19.02;;;7.43;;
52624;SDS011;38519;52.540;13.410;2022-12-07T04:31:24;20.63;;;7.90;;
52624;SDS011;38519;52.540;13.410;2022-12-07T04:33:50;15.80;;;7.63;;
52624;SDS011;38519;52.540;13.410;2022-12-07T04:38:40;18.25;;;8.60;;
52624;SDS011;38519;52.540;13.410;2022-12-07T04:41:07;18.70;;;7.82;;
52624;SDS011;38519;52.540;13.410;2022-12-07T04:43:34;20.23;;;8.57;;
52624;SDS011;38519;52.540;13.410;2022-12-07T04:46:00;16.98;;;8.32;;
52624;SDS011;38519;52.540;13.410;2022-12-07T04:48:27;17.80;;;9.23;;
52624;SDS011;38519;52.540;13.410;2022-12-07T04:53:19;15.43;;;7.28;;
52624;SDS011;38519;52.540;13.410;2022-12-07T04:55:45;23.17;;;9.32;;
52624;SDS011;38519;52.540;13.410;2022-12-07T04:58:11;20.90;;;9.82;;
52624;SDS011;38519;52.540;13.410;2022-12-07T05:00:37;18.30;;;9.25;;
52624;SDS011;38519;52.540;13.410;2022-12-07T05:03:03;20.67;;;9.60;;
52624;SDS011;38519;52.540;13.410;2022-12-07T05:07:54;19.25;;;9.18;;
52624;SDS011;38519;52.540;13.410;2022-12-07T05:12:45;21.77;;;10.43;;
52624;SDS011;38519;52.540;13.410;2022-12-07T05:15:11;24.50;;;10.63;;
52624;SDS011;38519;52.540;13.410;2022-12-07T05:17:37;20.10;;;10.02;;
52624;SDS011;38519;52.540;13.410;2022-12-07T05:22:29;25.58;;;10.40;;
52624;SDS011;38519;52.540;13.410;2022-12-07T05:27:21;24.65;;;11.90;;
52624;SDS011;38519;52.540;13.410;2022-12-07T05:32:12;21.63;;;10.50;;
52624;SDS011;38519;52.540;13.410;2022-12-07T05:37:03;22.00;;;10.43;;
52624;SDS011;38519;52.540;13.410;2022-12-07T05:39:29;20.00;;;9.98;;
52624;SDS011;38519;52.540;13.410;2022-12-07T05:44:46;26.60;;;11.63;;
52624;SDS011;38519;52.540;13.410;2022-12-07T05:49:39;29.88;;;12.75;;
52624;SDS011;38519;52.540;13.410;2022-12-07T05:52:05;23.77;;;12.02;;
52624;SDS011;38519;52.540;13.410;2022-12-07T05:54:32;28.15;;;13.93;;
52624;SDS011;38519;52.540;13.410;2022-12-07T05:59:24;30.20;;;16.27;;
52624;SDS011;38519;52.540;13.410;2022-12-07T06:01:55;25.52;;;11.65;;
52624;SDS011;38519;52.540;13.410;2022-12-07T06:04:23;27.05;;;12.13;;
52624;SDS011;38519;52.540;13.410;2022-12-07T06:06:51;28.63;;;12.07;;
52624;SDS011;38519;52.540;13.410;2022-12-07T06:09:17;21.30;;;9.55;;
52624;SDS011;38519;52.540;13.410;2022-12-07T06:11:43;80.90;;;36.35;;
52624;SDS011;38519;52.540;13.410;2022-12-07T06:14:28;101.20;;;49.85;;
52624;SDS011;38519;52.540;13.410;2022-12-07T06:16:54;49.40;;;25.45;;
52624;SDS011;38519;52.540;13.410;2022-12-07T06:21:45;26.95;;;13.07;;
52624;SDS011;38519;52.540;13.410;2022-12-07T06:26:37;27.90;;;14.00;;
52624;SDS011;38519;52.540;13.410;2022-12-07T06:29:03;26.02;;;11.63;;
52624;SDS011;38519;52.540;13.410;2022-12-07T06:34:02;23.55;;;11.52;;
52624;SDS011;38519;52.540;13.410;2022-12-07T06:36:29;34.47;;;14.82;;
52624;SDS011;38519;52.540;13.410;2022-12-07T06:41:21;27.13;;;11.90;;
52624;SDS011;38519;52.540;13.410;2022-12-07T06:43:47;23.92;;;10.95;;
52624;SDS011;38519;52.540;13.410;2022-12-07T06:46:14;29.92;;;12.63;;
52624;SDS011;38519;52.540;13.410;2022-12-07T06:48:40;27.15;;;12.32;;
52624;SDS011;38519;52.540;13.410;2022-12-07T06:51:06;30.25;;;12.93;;
52624;SDS011;38519;52.540;13.410;2022-12-07T06:53:32;25.58;;;11.45;;
52624;SDS011;38519;52.540;13.410;2022-12-07T06:58:24;28.00;;;13.27;;
52624;SDS011;38519;52.540;13.410;2022-12-07T07:03:16;23.95;;;10.95;;
52624;SDS011;38519;52.540;13.410;2022-12-07T07:05:42;28.48;;;12.63;;
52624;SDS011;38519;52.540;13.410;2022-12-07T07:08:08;23.95;;;10.80;;
52624;SDS011;38519;52.540;13.410;2022-12-07T07:13:00;24.23;;;10.95;;
52624;SDS011;38519;52.540;13.410;2022-12-07T07:15:26;30.10;;;13.32;;
52624;SDS011;38519;52.540;13.410;2022-12-07T07:20:17;37.20;;;14.02;;
52624;SDS011;38519;52.540;13.410;2022-12-07T07:22:43;34.25;;;12.55;;
52624;SDS011;38519;52.540;13.410;2022-12-07T07:25:09;31.05;;;13.43;;
52624;SDS011;38519;52.540;13.410;2022-12-07T07:27:34;28.13;;;12.68;;
52624;SDS011;38519;52.540;13.410;2022-12-07T07:32:25;23.33;;;10.57;;
52624;SDS011;38519;52.540;13.410;2022-12-07T07:34:51;26.27;;;11.10;;
52624;SDS011;38519;52.540;13.410;2022-12-07T07:39:42;29.25;;;11.73;;
52624;SDS011;38519;52.540;13.410;2022-12-07T07:44:33;35.53;;;14.02;;
52624;SDS011;38519;52.540;13.410;2022-12-07T07:47:00;24.10;;;10.85;;
52624;SDS011;38519;52.540;13.410;2022-12-07T07:49:26;26.20;;;11.07;;
52624;SDS011;38519;52.540;13.410;2022-12-07T07:54:17;20.30;;;9.63;;
52624;SDS011;38519;52.540;13.410;2022-12-07T07:56:43;28.15;;;11.15;;
52624;SDS011;38519;52.540;13.410;2022-12-07T07:59:08;30.10;;;11.85;;
52624;SDS011;38519;52.540;13.410;2022-12-07T08:01:42;19.42;;;8.02;;
52624;SDS011;38519;52.540;13.410;2022-12-07T08:04:07;20.67;;;8.30;;
52624;SDS011;38519;52.540;13.410;2022-12-07T08:06:33;21.63;;;7.50;;
52624;SDS011;38519;52.540;13.410;2022-12-07T08:11:25;21.33;;;8.07;;
52624;SDS011;38519;52.540;13.410;2022-12-07T08:13:51;19.55;;;7.32;;
52624;SDS011;38519;52.540;13.410;2022-12-07T08:16:16;27.92;;;9.00;;
52624;SDS011;38519;52.540;13.410;2022-12-07T08:18:43;14.90;;;5.90;;
52624;SDS011;38519;52.540;13.410;2022-12-07T08:21:09;15.93;;;5.80;;
52624;SDS011;38519;52.540;13.410;2022-12-07T08:23:37;17.38;;;7.43;;
52624;SDS011;38519;52.540;13.410;2022-12-07T08:28:29;22.37;;;7.67;;
52624;SDS011;38519;52.540;13.410;2022-12-07T08:31:14;38.53;;;12.88;;
52624;SDS011;38519;52.540;13.410;2022-12-07T08:33:47;12.88;;;4.85;;
52624;SDS011;38519;52.540;13.410;2022-12-07T08:36:13;11.05;;;5.53;;
52624;SDS011;38519;52.540;13.410;2022-12-07T08:38:40;15.07;;;5.40;;
52624;SDS011;38519;52.540;13.410;2022-12-07T08:41:07;16.23;;;6.07;;
52624;SDS011;38519;52.540;13.410;2022-12-07T08:43:34;10.88;;;4.57;;
52624;SDS011;38519;52.540;13.410;2022-12-07T08:46:06;9.80;;;4.25;;
52624;SDS011;38519;52.540;13.410;2022-12-07T08:48:45;9.77;;;4.30;;
52624;SDS011;38519;52.540;13.410;2022-12-07T08:51:14;22.40;;;7.97;;
52624;SDS011;38519;52.540;13.410;2022-12-07T08:53:40;12.63;;;4.40;;
52624;SDS011;38519;52.540;13.410;2022-12-07T08:56:08;11.88;;;3.95;;
52624;SDS011;38519;52.540;13.410;2022-12-07T08:58:34;57.38;;;15.73;;
52624;SDS011;38519;52.540;13.410;2022-12-07T09:01:02;14.82;;;4.93;;
52624;SDS011;38519;52.540;13.410;2022-12-07T09:05:53;7.90;;;3.20;;
52624;SDS011;38519;52.540;13.410;2022-12-07T09:10:46;25.27;;;8.23;;
52624;SDS011;38519;52.540;13.410;2022-12-07T09:13:13;9.27;;;3.00;;
52624;SDS011;38519;52.540;13.410;2022-12-07T09:15:39;34.17;;;8.15;;
52624;SDS011;38519;52.540;13.410;2022-12-07T09:18:04;10.02;;;2.85;;
52624;SDS011;38519;52.540;13.410;2022-12-07T09:20:30;14.50;;;4.97;;
52624;SDS011;38519;52.540;13.410;2022-12-07T09:22:56;8.98;;;2.80;;
52624;SDS011;38519;52.540;13.410;2022-12-07T09:27:47;9.18;;;3.47;;
52624;SDS011;38519;52.540;13.410;2022-12-07T09:30:13;5.97;;;2.88;;
52624;SDS011;38519;52.540;13.410;2022-12-07T09:32:39;18.48;;;5.50;;
52624;SDS011;38519;52.540;13.410;2022-12-07T09:37:30;21.00;;;6.97;;
52624;SDS011;38519;52.540;13.410;2022-12-07T09:40:02;35.30;;;10.90;;
52624;SDS011;38519;52.540;13.410;2022-12-07T09:42:29;32.53;;;9.30;;
52624;SDS011;38519;52.540;13.410;2022-12-07T09:44:59;12.20;;;7.80;;
52624;SDS011;38519;52.540;13.410;2022-12-07T09:47:26;22.42;;;8.02;;
52624;SDS011;38519;52.540;13.410;2022-12-07T09:50:00;10.75;;;4.75;;
52624;SDS011;38519;52.540;13.410;2022-12-07T09:52:30;24.10;;;5.95;;
52624;SDS011;38519;52.540;13.410;2022-12-07T09:54:57;18.08;;;5.68;;
52624;SDS011;38519;52.540;13.410;2022-12-07T09:57:29;31.10;;;9.75;;
52624;SDS011;38519;52.540;13.410;2022-12-07T09:59:59;38.58;;;9.60;;
52624;SDS011;38519;52.540;13.410;2022-12-07T10:02:35;5.78;;;2.70;;
52624;SDS011;38519;52.540;13.410;2022-12-07T10:05:06;37.05;;;9.57;;
52624;SDS011;38519;52.540;13.410;2022-12-07T10:07:35;11.10;;;4.20;;
52624;SDS011;38519;52.540;13.410;2022-12-07T10:10:02;68.63;;;14.68;;
52624;SDS011;38519;52.540;13.410;2022-12-07T10:12:30;15.45;;;3.88;;
52624;SDS011;38519;52.540;13.410;2022-12-07T10:14:57;5.97;;;2.88;;
52624;SDS011;38519;52.540;13.410;2022-12-07T10:17:40;64.05;;;14.20;;
52624;SDS011;38519;52.540;13.410;2022-12-07T10:23:00;5.20;;;2.60;;
52624;SDS011;38519;52.540;13.410;2022-12-07T10:25:33;13.00;;;4.18;;
52624;SDS011;38519;52.540;13.410;2022-12-07T10:28:16;8.20;;;3.22;;
52624;SDS011;38519;52.540;13.410;2022-12-07T10:30:48;17.83;;;5.68;;
52624;SDS011;38519;52.540;13.410;2022-12-07T10:33:28;58.70;;;12.63;;
52624;SDS011;38519;52.540;13.410;2022-12-07T10:35:54;6.90;;;2.63;;
52624;SDS011;38519;52.540;13.410;2022-12-07T10:38:20;3.20;;;2.30;;
52624;SDS011;38519;52.540;13.410;2022-12-07T10:40:46;4.35;;;2.42;;
52624;SDS011;38519;52.540;13.410;2022-12-07T10:48:17;9.40;;;3.20;;
52624;SDS011;38519;52.540;13.410;2022-12-07T10:53:34;17.83;;;4.95;;
52624;SDS011;38519;52.540;13.410;2022-12-07T10:56:26;66.50;;;14.25;;
52624;SDS011;38519;52.540;13.410;2022-12-07T10:59:40;48.13;;;9.88;;
52624;SDS011;38519;52.540;13.410;2022-12-07T11:02:34;9.43;;;3.47;;
52624;SDS011;38519;52.540;13.410;2022-12-07T11:05:31;6.95;;;3.15;;
52624;SDS011;38519;52.540;13.410;2022-12-07T11:08:27;14.57;;;5.80;;
52624;SDS011;38519;52.540;13.410;2022-12-07T11:16:31;16.17;;;6.13;;
52624;SDS011;38519;52.540;13.410;2022-12-07T11:22:25;12.23;;;4.90;;
52624;SDS011;38519;52.540;13.410;2022-12-07T11:30:30;9.05;;;4.15;;
52624;SDS011;38519;52.540;13.410;2022-12-07T11:35:40;16.05;;;7.40;;
52624;SDS011;38519;52.540;13.410;2022-12-07T11:38:23;20.88;;;7.53;;
52624;SDS011;38519;52.540;13.410;2022-12-07T11:40:55;19.27;;;6.13;;
52624;SDS011;38519;52.540;13.410;2022-12-07T11:43:37;12.55;;;5.57;;
52624;SDS011;38519;52.540;13.410;2022-12-07T11:46:19;9.85;;;4.82;;
52624;SDS011;38519;52.540;13.410;2022-12-07T11:49:01;7.70;;;3.67;;
52624;SDS011;38519;52.540;13.410;2022-12-07T11:51:37;11.82;;;3.88;;
52624;SDS011;38519;52.540;13.410;2022-12-07T11:54:10;9.85;;;4.57;;
52624;SDS011;38519;52.540;13.410;2022-12-07T11:56:41;15.97;;;4.30;;
52624;SDS011;38519;52.540;13.410;2022-12-07T11:59:30;11.73;;;4.55;;
52624;SDS011;38519;52.540;13.410;2022-12-07T12:02:24;14.90;;;3.83;;
52624;SDS011;38519;52.540;13.410;2022-12-07T12:05:03;11.35;;;4.82;;
52624;SDS011;38519;52.540;13.410;2022-12-07T12:07:44;11.55;;;4.55;;
52624;SDS011;38519;52.540;13.410;2022-12-07T12:12:58;13.85;;;4.45;;
52624;SDS011;38519;52.540;13.410;2022-12-07T12:21:07;14.38;;;7.00;;
52624;SDS011;38519;52.540;13.410;2022-12-07T12:23:44;11.88;;;5.00;;
52624;SDS011;38519;52.540;13.410;2022-12-07T12:26:15;9.73;;;4.00;;
52624;SDS011;38519;52.540;13.410;2022-12-07T12:28:57;19.27;;;5.20;;
52624;SDS011;38519;52.540;13.410;2022-12-07T12:34:00;9.38;;;3.90;;
52624;SDS011;38519;52.540;13.410;2022-12-07T12:43:59;7.30;;;3.20;;
52624;SDS011;38519;52.540;13.410;2022-12-07T12:51:42;13.98;;;3.75;;
52624;SDS011;38519;52.540;13.410;2022-12-07T12:54:31;11.57;;;3.42;;
52624;SDS011;38519;52.540;13.410;2022-12-07T12:57:05;9.68;;;3.03;;
52624;SDS011;38519;52.540;13.410;2022-12-07T13:13:03;9.82;;;3.00;;
52624;SDS011;38519;52.540;13.410;2022-12-07T13:15:45;9.18;;;3.42;;
52624;SDS011;38519;52.540;13.410;2022-12-07T13:31:49;11.00;;;3.55;;
52624;SDS011;38519;52.540;13.410;2022-12-07T13:39:47;5.05;;;2.42;;
52624;SDS011;38519;52.540;13.410;2022-12-07T13:42:25;7.28;;;2.45;;
52624;SDS011;38519;52.540;13.410;2022-12-07T13:44:55;8.27;;;2.88;;
52624;SDS011;38519;52.540;13.410;2022-12-07T13:47:26;8.35;;;2.88;;
52624;SDS011;38519;52.540;13.410;2022-12-07T13:49:56;9.48;;;3.30;;
52624;SDS011;38519;52.540;13.410;2022-12-07T13:52:29;12.00;;;3.67;;
52624;SDS011;38519;52.540;13.410;2022-12-07T13:57:30;7.05;;;2.90;;
52624;SDS011;38519;52.540;13.410;2022-12-07T14:00:00;10.48;;;3.20;;
52624;SDS011;38519;52.540;13.410;2022-12-07T14:02:30;5.32;;;2.55;;
52624;SDS011;38519;52.540;13.410;2022-12-07T14:08:23;10.13;;;3.15;;
52624;SDS011;38519;52.540;13.410;2022-12-07T14:10:28;9.38;;;2.70;;
52624;SDS011;38519;52.540;13.410;2022-12-07T14:15:54;9.90;;;3.20;;
52624;SDS011;38519;52.540;13.410;2022-12-07T14:18:27;9.52;;;3.25;;
52624;SDS011;38519;52.540;13.410;2022-12-07T14:21:02;11.07;;;3.03;;
52624;SDS011;38519;52.540;13.410;2022-12-07T14:23:40;9.90;;;3.78;;
52624;SDS011;38519;52.540;13.410;2022-12-07T14:26:15;9.18;;;3.60;;
52624;SDS011;38519;52.540;13.410;2022-12-07T14:28:44;19.48;;;8.57;;
52624;SDS011;38519;52.540;13.410;2022-12-07T14:31:12;15.18;;;4.70;;
52624;SDS011;38519;52.540;13.410;2022-12-07T14:33:40;16.60;;;6.07;;
52624;SDS011;38519;52.540;13.410;2022-12-07T14:38:33;9.95;;;5.45;;
52624;SDS011;38519;52.540;13.410;2022-12-07T14:40:59;9.90;;;3.85;;
52624;SDS011;38519;52.540;13.410;2022-12-07T14:43:45;9.70;;;4.78;;
52624;SDS011;38519;52.540;13.410;2022-12-07T14:48:36;9.15;;;4.63;;
52624;SDS011;38519;52.540;13.410;2022-12-07T14:53:29;8.23;;;3.70;;
52624;SDS011;38519;52.540;13.410;2022-12-07T14:56:06;6.07;;;2.80;;
52624;SDS011;38519;52.540;13.410;2022-12-07T15:00:58;9.90;;;4.20;;
52624;SDS011;38519;52.540;13.410;2022-12-07T15:03:24;8.93;;;2.78;;
52624;SDS011;38519;52.540;13.410;2022-12-07T15:05:49;5.30;;;2.58;;
52624;SDS011;38519;52.540;13.410;2022-12-07T15:08:15;8.43;;;3.17;;
52624;SDS011;38519;52.540;13.410;2022-12-07T15:13:08;9.75;;;3.25;;
52624;SDS011;38519;52.540;13.410;2022-12-07T15:15:53;7.13;;;2.65;;
52624;SDS011;38519;52.540;13.410;2022-12-07T15:18:20;7.75;;;2.60;;
52624;SDS011;38519;52.540;13.410;2022-12-07T15:20:46;5.55;;;2.33;;
52624;SDS011;38519;52.540;13.410;2022-12-07T15:23:13;7.72;;;2.53;;
52624;SDS011;38519;52.540;13.410;2022-12-07T15:25:43;8.52;;;2.75;;
52624;SDS011;38519;52.540;13.410;2022-12-07T15:28:10;8.70;;;2.70;;
52624;SDS011;38519;52.540;13.410;2022-12-07T15:30:39;8.45;;;2.90;;
52624;SDS011;38519;52.540;13.410;2022-12-07T15:33:08;9.50;;;2.85;;
52624;SDS011;38519;52.540;13.410;2022-12-07T15:38:03;10.00;;;2.80;;
52624;SDS011;38519;52.540;13.410;2022-12-07T15:40:29;6.45;;;2.42;;
52624;SDS011;38519;52.540;13.410;2022-12-07T15:42:54;7.93;;;2.90;;
52624;SDS011;38519;52.540;13.410;2022-12-07T15:45:20;12.90;;;2.67;;
52624;SDS011;38519;52.540;13.410;2022-12-07T15:50:12;6.88;;;3.28;;
52624;SDS011;38519;52.540;13.410;2022-12-07T15:52:39;11.80;;;3.35;;
52624;SDS011;38519;52.540;13.410;2022-12-07T15:55:05;8.68;;;3.08;;
52624;SDS011;38519;52.540;13.410;2022-12-07T15:57:32;13.85;;;2.97;;
52624;SDS011;38519;52.540;13.410;2022-12-07T15:59:58;6.68;;;2.97;;
52624;SDS011;38519;52.540;13.410;2022-12-07T16:02:24;12.60;;;2.83;;
52624;SDS011;38519;52.540;13.410;2022-12-07T16:07:16;12.48;;;2.83;;
52624;SDS011;38519;52.540;13.410;2022-12-07T16:09:43;12.82;;;3.35;;
52624;SDS011;38519;52.540;13.410;2022-12-07T16:12:10;6.90;;;3.22;;
52624;SDS011;38519;52.540;13.410;2022-12-07T16:14:38;17.35;;;3.38;;
52624;SDS011;38519;52.540;13.410;2022-12-07T16:17:05;11.75;;;3.33;;
52624;SDS011;38519;52.540;13.410;2022-12-07T16:19:32;11.32;;;2.90;;
52624;SDS011;38519;52.540;13.410;2022-12-07T16:21:58;12.18;;;4.75;;
52624;SDS011;38519;52.540;13.410;2022-12-07T16:26:55;20.35;;;7.82;;
52624;SDS011;38519;52.540;13.410;2022-12-07T16:29:21;27.65;;;11.73;;
52624;SDS011;38519;52.540;13.410;2022-12-07T16:31:50;14.18;;;4.65;;
52624;SDS011;38519;52.540;13.410;2022-12-07T16:34:17;19.05;;;3.53;;
52624;SDS011;38519;52.540;13.410;2022-12-07T16:36:43;15.02;;;7.88;;
52624;SDS011;38519;52.540;13.410;2022-12-07T16:41:34;24.65;;;11.60;;
52624;SDS011;38519;52.540;13.410;2022-12-07T16:46:31;39.33;;;20.00;;
52624;SDS011;38519;52.540;13.410;2022-12-07T16:48:58;22.48;;;10.30;;
52624;SDS011;38519;52.540;13.410;2022-12-07T16:51:24;14.60;;;4.40;;
52624;SDS011;38519;52.540;13.410;2022-12-07T16:53:50;50.42;;;28.98;;
52624;SDS011;38519;52.540;13.410;2022-12-07T16:56:18;22.73;;;10.73;;
52624;SDS011;38519;52.540;13.410;2022-12-07T16:58:43;27.42;;;12.48;;
52624;SDS011;38519;52.540;13.410;2022-12-07T17:03:39;9.77;;;3.97;;
52624;SDS011;38519;52.540;13.410;2022-12-07T17:06:18;9.88;;;3.70;;
52624;SDS011;38519;52.540;13.410;2022-12-07T17:08:51;13.38;;;4.75;;
52624;SDS011;38519;52.540;13.410;2022-12-07T17:13:48;11.15;;;3.50;;
52624;SDS011;38519;52.540;13.410;2022-12-07T17:16:33;9.45;;;3.60;;
52624;SDS011;38519;52.540;13.410;2022-12-07T17:19:04;9.55;;;3.72;;
52624;SDS011;38519;52.540;13.410;2022-12-07T17:21:34;11.93;;;3.33;;
52624;SDS011;38519;52.540;13.410;2022-12-07T17:26:26;15.87;;;4.10;;
52624;SDS011;38519;52.540;13.410;2022-12-07T17:28:54;7.18;;;2.63;;
52624;SDS011;38519;52.540;13.410;2022-12-07T17:31:21;7.72;;;3.17;;
52624;SDS011;38519;52.540;13.410;2022-12-07T17:33:47;15.00;;;3.65;;
52624;SDS011;38519;52.540;13.410;2022-12-07T17:36:16;8.80;;;3.10;;
52624;SDS011;38519;52.540;13.410;2022-12-07T17:38:47;9.35;;;3.53;;
52624;SDS011;38519;52.540;13.410;2022-12-07T17:41:16;11.77;;;3.80;;
52624;SDS011;38519;52.540;13.410;2022-12-07T17:44:03;7.10;;;3.25;;
52624;SDS011;38519;52.540;13.410;2022-12-07T17:46:31;12.10;;;4.22;;
52624;SDS011;38519;52.540;13.410;2022-12-07T17:48:57;16.25;;;5.78;;
52624;SDS011;38519;52.540;13.410;2022-12-07T17:51:24;9.30;;;3.30;;
52624;SDS011;38519;52.540;13.410;2022-12-07T17:54:08;10.70;;;5.40;;
52624;SDS011;38519;52.540;13.410;2022-12-07T17:56:34;6.97;;;3.42;;
52624;SDS011;38519;52.540;13.410;2022-12-07T17:59:01;10.75;;;3.63;;
52624;SDS011;38519;52.540;13.410;2022-12-07T18:01:27;15.30;;;3.45;;
52624;SDS011;38519;52.540;13.410;2022-12-07T18:06:19;9.80;;;4.20;;
52624;SDS011;38519;52.540;13.410;2022-12-07T18:08:45;8.38;;;3.80;;
52624;SDS011;38519;52.540;13.410;2022-12-07T18:11:10;14.30;;;3.72;;
52624;SDS011;38519;52.540;13.410;2022-12-07T18:16:03;9.10;;;3.65;;
52624;SDS011;38519;52.540;13.410;2022-12-07T18:18:39;7.65;;;3.20;;
52624;SDS011;38519;52.540;13.410;2022-12-07T18:23:40;9.35;;;4.15;;
52624;SDS011;38519;52.540;13.410;2022-12-07T18:26:10;16.95;;;5.28;;
52624;SDS011;38519;52.540;13.410;2022-12-07T18:28:38;18.20;;;10.60;;
52624;SDS011;38519;52.540;13.410;2022-12-07T18:31:04;11.48;;;4.60;;
52624;SDS011;38519;52.540;13.410;2022-12-07T18:35:57;10.00;;;4.03;;
52624;SDS011;38519;52.540;13.410;2022-12-07T18:38:23;10.55;;;4.70;;
52624;SDS011;38519;52.540;13.410;2022-12-07T18:43:15;14.13;;;4.75;;
52624;SDS011;38519;52.540;13.410;2022-12-07T18:45:43;13.93;;;6.50;;
52624;SDS011;38519;52.540;13.410;2022-12-07T18:48:12;16.00;;;5.60;;
52624;SDS011;38519;52.540;13.410;2022-12-07T18:50:40;12.30;;;5.00;;
52624;SDS011;38519;52.540;13.410;2022-12-07T18:53:06;13.23;;;4.43;;
52624;SDS011;38519;52.540;13.410;2022-12-07T18:55:32;10.20;;;4.88;;
52624;SDS011;38519;52.540;13.410;2022-12-07T18:57:58;19.55;;;5.63;;
52624;SDS011;38519;52.540;13.410;2022-12-07T19:00:25;15.77;;;5.10;;
52624;SDS011;38519;52.540;13.410;2022-12-07T19:02:52;12.30;;;4.13;;
52624;SDS011;38519;52.540;13.410;2022-12-07T19:05:19;15.43;;;7.75;;
52624;SDS011;38519;52.540;13.410;2022-12-07T19:10:11;14.40;;;5.45;;
52624;SDS011;38519;52.540;13.410;2022-12-07T19:12:38;20.52;;;7.85;;
52624;SDS011;38519;52.540;13.410;2022-12-07T19:15:05;19.17;;;5.95;;
52624;SDS011;38519;52.540;13.410;2022-12-07T19:17:31;36.63;;;15.95;;
52624;SDS011;38519;52.540;13.410;2022-12-07T19:22:22;22.52;;;9.02;;